首页
METAR-TAF:

METAR-TAF

机场 :

卡塞尔, 德国

纬度: 51-24N, 经度: 009-23E, 海拔: 277米

当前天气观测

该预报发布于19分钟前的17:50 UTC
风速3节,风向北转东北,在东转东北之间变化
温度 29°C
湿度 43%
气压 1019 hPa
能见度10公里或以上
1500米以下无云,无积雨云

METAR: EDVK 231750Z 03003KT 360V060 CAVOK 29/15 Q1019

时间: 20:09 (18:09 UTC)

预报

该预报发布于1小时和9分钟前的17:00 UTC
预报有效从23日的 18点(UTC)到 24日的 03点(UTC)
风速3节,风向多变
能见度10公里或以上
1500米以下无云,无积雨云

TAF: EDVK 231700Z 2318/2403 VRB03KT CAVOK

超过4000个机场的气象观测和天气预报(METAR&TAF报告)。

可查询的气象台以黄色和红色小点在地图上表示。

将鼠标移到小点上方,可查看气象台名称。

然后点击查看天气观测和预报。

如需切换地图:点击带黑十字的绿色按钮放大地图;点击带横线的绿色按钮缩小地图;或者点击绿色箭头查看邻近地区的地图。


METAR-TAF: